Nba Van Gogh — 3FRY9 — position and weather

sailwx.info

Track history (hours):
 
Tides and Currents Weather Stations Pressure Air Temp Water Temp Dewpoint Dewpoint Depression Visibility Wind Speed Wind Dir Waves Ship Positions

Nba Van Gogh

Last reported at 2018-May-29 11:21 UTC. Time now 2018-Jun-20 19:01 UTC.
Position N 38°54' E 003°10'.
Warning: this ship's position is 22 days out of date.

Length 235 m; draft 13.7 m.

Type: Cargo ship. MMSI: 357110000.

Date/timePositionNaut miles runAvg speedWind from/ knotsBaromVisibWave heightAir tempDewpointWater temp
2018-May-29 11:21N 38°54' E 003°10'611.3
2018-May-29 10:46N 38°51' E 003°03'2011.5
2018-May-29 09:01N 38°40' E 002°41'011.6
2018-May-29 08:59N 38°40' E 002°40'3411.7
2018-May-29 06:04N 38°23' E 002°03'211.7
2018-May-29 05:52N 38°21' E 002°00'9611.6
2018-May-28 21:34N 37°32' E 000°16'311.9
2018-May-28 21:18N 37°31' E 000°12'412.0
2018-May-28 21:00N 37°29' E 000°08'612.1
2018-May-28 20:30N 37°26' E 000°02'712.2
2018-May-28 19:54N 37°22' W 000°06'612.1
2018-May-28 19:26N 37°19' W 000°12'512.0
2018-May-28 19:00N 37°16' W 000°18'612.0
2018-May-28 18:29N 37°13' W 000°24'1511.7
2018-May-28 17:12N 37°06' W 000°40'211.6
2018-May-28 17:00N 37°04' W 000°43'911.7
2018-May-28 16:13N 36°60' W 000°53'1513.7
2018-May-28 15:07N 36°52' W 001°09'514.3
2018-May-28 14:48N 36°50' W 001°14'19812.2
2018-May-27 22:39N 36°01' W 005°12'214.2
2018-May-27 22:30N 36°00' W 005°15'714.1
2018-May-27 22:00N 35°59' W 005°23'713.2
2018-May-27 21:30N 35°57' W 005°31'612.0
2018-May-27 20:59N 35°55' W 005°38'610.9
2018-May-27 20:29N 35°55' W 005°45'611.2
2018-May-27 19:58N 35°54' W 005°52'15512.0
2018-May-27 07:00N 36°30' W 008°59'9210.8
2018-May-26 22:28N 37°50' W 009°55'1511.3
2018-May-26 21:10N 38°05' W 009°60'411.2
2018-May-26 20:50N 38°08' W 010°01'411.3
2018-May-26 20:30N 38°12' W 010°02'611.4
2018-May-26 19:59N 38°17' W 010°04'511.3
2018-May-26 19:30N 38°23' W 010°06'611.3
2018-May-26 19:00N 38°28' W 010°08'711.5
2018-May-26 18:22N 38°35' W 010°11'511.5
2018-May-26 17:58N 38°40' W 010°12'511.4
2018-May-26 17:30N 38°45' W 010°13'611.5
2018-May-26 17:00N 38°51' W 010°13'611.8
2018-May-26 16:30N 38°57' W 010°12'611.7
2018-May-26 16:00N 39°02' W 010°12'612.0
2018-May-26 15:30N 39°08' W 010°12'713.2
2018-May-26 15:00N 39°15' W 010°12'  
2018-May-24 08:54N 48°56' W 005°43'2611.6
2018-May-24 06:42N 49°09' W 005°10'212.0
2018-May-24 06:30N 49°10' W 005°06'7411.7
2018-May-24 00:10N 49°47' W 003°28'211.4
2018-May-24 00:00N 49°48' W 003°25'611.6
2018-May-23 23:30N 49°51' W 003°18'611.9
2018-May-23 23:00N 49°54' W 003°10'612.3
2018-May-23 22:30N 49°57' W 003°01'612.7
2018-May-23 22:01N 49°59' W 002°52'713.3
2018-May-23 21:30N 50°01' W 002°42'1013.7
2018-May-23 20:49N 50°04' W 002°28'1314.0
2018-May-23 19:55N 50°07' W 002°09'613.7
2018-May-23 19:30N 50°09' W 002°01'713.2
2018-May-23 19:00N 50°11' W 001°51'612.6
2018-May-23 18:30N 50°12' W 001°41'611.9
2018-May-23 18:00N 50°14' W 001°32'611.3
2018-May-23 17:30N 50°15' W 001°24'510.7
2018-May-23 17:00N 50°17' W 001°16'11 9.9
2018-May-23 15:55N 50°20' W 000°60'5 9.5
2018-May-23 15:23N 50°21' W 000°52'4 9.7
2018-May-23 15:00N 50°22' W 000°46'5 9.8
2018-May-23 14:30N 50°23' W 000°39'510.0
2018-May-23 14:00N 50°25' W 000°31'510.5
2018-May-23 13:30N 50°26' W 000°24'611.1
2018-May-23 13:00N 50°28' W 000°15'611.7
2018-May-23 12:30N 50°29' W 000°06'612.1
2018-May-23 12:00N 50°31' E 000°03'612.6
2018-May-23 11:30N 50°32' E 000°13'612.9
2018-May-23 11:00N 50°34' E 000°22'1112.9
2018-May-23 10:11N 50°39' E 000°37'3311.9
2018-May-23 07:25N 50°59' E 001°18'410.1
2018-May-23 07:00N 51°02' E 001°23'510.1
2018-May-23 06:30N 51°05' E 001°29'510.0
2018-May-23 06:00N 51°08' E 001°35'510.1
2018-May-23 05:30N 51°11' E 001°42'510.6
2018-May-23 05:00N 51°15' E 001°47'611.3
2018-May-23 04:30N 51°20' E 001°52'611.7
2018-May-23 04:00N 51°25' E 001°57'612.5
2018-May-23 03:30N 51°30' E 002°03'612.9
2018-May-23 03:00N 51°35' E 002°10'713.1
2018-May-23 02:30N 51°40' E 002°17'713.2
2018-May-23 02:00N 51°45' E 002°23'713.1
2018-May-23 01:30N 51°50' E 002°30'612.8
2018-May-23 01:00N 51°55' E 002°36'612.4
2018-May-23 00:30N 52°01' E 002°41'611.9
2018-May-23 00:00N 52°07' E 002°42'611.4
2018-May-22 23:28N 52°13' E 002°45'511.0
2018-May-22 23:00N 52°18' E 002°47'510.8
2018-May-22 22:30N 52°22' E 002°51'510.5
2018-May-22 22:00N 52°27' E 002°55'510.4
2018-May-22 21:30N 52°32' E 002°58'510.3
2018-May-22 21:00N 52°37' E 003°02'510.2
2018-May-22 20:30N 52°41' E 003°05'510.3
2018-May-22 20:00N 52°46' E 003°09'510.5
2018-May-22 19:30N 52°51' E 003°12'510.8
2018-May-22 19:00N 52°56' E 003°15'611.2
2018-May-22 18:30N 53°01' E 003°18'611.6
2018-May-22 18:00N 53°07' E 003°21'611.9
2018-May-22 17:30N 53°12' E 003°24'612.1
2018-May-22 17:00N 53°18' E 003°26'612.1
2018-May-22 16:30N 53°24' E 003°29'612.2
2018-May-22 16:00N 53°30' E 003°33'612.2
2018-May-22 15:30N 53°36' E 003°36'612.0
2018-May-22 15:00N 53°41' E 003°39'1811.3
2018-May-22 13:24N 53°53' E 004°02'1211.1
2018-May-22 12:22N 54°00' E 004°18'1411.1
2018-May-22 11:05N 54°12' E 004°32'111.2
2018-May-22 11:00N 54°13' E 004°33'611.4
2018-May-22 10:29N 54°18' E 004°38'611.4
2018-May-22 10:00N 54°22' E 004°43'611.6
2018-May-22 09:30N 54°27' E 004°48'611.8
2018-May-22 09:00N 54°32' E 004°53'612.0
2018-May-22 08:30N 54°38' E 004°58'17011.7
2018-May-21 18:01N 57°03' E 007°33'2911.5
2018-May-21 15:31N 57°22' E 008°14'010.5
2018-May-21 15:28N 57°22' E 008°14'712.2
2018-May-21 14:53N 57°27' E 008°25'812.3
2018-May-21 14:14N 57°31' E 008°37'611.6
2018-May-21 13:43N 57°35' E 008°46'311.7
2018-May-21 13:29N 57°37' E 008°50'611.7
2018-May-21 12:59N 57°40' E 008°58'611.6
2018-May-21 12:30N 57°43' E 009°07'611.5
2018-May-21 12:00N 57°46' E 009°16'611.4
2018-May-21 11:30N 57°49' E 009°25'611.1
2018-May-21 11:00N 57°50' E 009°36'611.6
2018-May-21 10:30N 57°50' E 009°46'611.9
2018-May-21 10:00N 57°50' E 009°58'611.9
2018-May-21 09:30N 57°50' E 010°09'611.8
2018-May-21 09:00N 57°50' E 010°20'611.9
2018-May-21 08:30N 57°50' E 010°31'611.4
2018-May-21 08:00N 57°50' E 010°42'5 9.8
2018-May-21 07:30N 57°47' E 010°50'4 8.8
2018-May-21 07:00N 57°43' E 010°54'611.4
2018-May-21 06:30N 57°40' E 011°02'611.3
2018-May-21 06:00N 57°36' E 011°10'611.4
2018-May-21 05:30N 57°32' E 011°18'611.7
2018-May-21 05:00N 57°28' E 011°26'612.1
2018-May-21 04:30N 57°22' E 011°29'611.7
2018-May-21 04:00N 57°17' E 011°33'611.6
2018-May-21 03:30N 57°11' E 011°37'611.4
2018-May-21 03:00N 57°06' E 011°41'611.4
2018-May-21 02:30N 57°00' E 011°44'611.5
2018-May-21 02:00N 56°55' E 011°48'611.4
2018-May-21 01:30N 56°50' E 011°51'610.5
2018-May-21 00:58N 56°44' E 011°53'510.8
2018-May-21 00:30N 56°40' E 011°48'610.9
2018-May-20 23:59N 56°35' E 011°43'511.0
2018-May-20 23:30N 56°31' E 011°38'611.1
2018-May-20 23:00N 56°26' E 011°33'511.1
2018-May-20 22:30N 56°21' E 011°28'611.1
2018-May-20 22:00N 56°16' E 011°23'611.4
2018-May-20 21:30N 56°11' E 011°17'47 9.9
2018-May-20 16:44N 55°25' E 010°59'310.8
2018-May-20 16:29N 55°23' E 011°02'510.7
2018-May-20 16:00N 55°18' E 011°03'510.6
2018-May-20 15:30N 55°13' E 011°06'510.4
2018-May-20 15:00N 55°09' E 010°60'611.0
2018-May-20 14:30N 55°04' E 010°60'510.8
2018-May-20 14:00N 54°58' E 010°58'611.2
2018-May-20 13:30N 54°54' E 010°51'510.5
2018-May-20 13:00N 54°49' E 010°50'611.9
2018-May-20 12:30N 54°43' E 010°47'611.0
2018-May-20 12:00N 54°39' E 010°53'611.4
2018-May-20 11:30N 54°36' E 011°02'611.7
2018-May-20 11:00N 54°36' E 011°12'611.1
2018-May-20 10:30N 54°33' E 011°20'611.7
2018-May-20 10:00N 54°30' E 011°29'611.6
2018-May-20 09:30N 54°28' E 011°39'611.6
2018-May-20 09:00N 54°27' E 011°48'611.8
2018-May-20 08:30N 54°27' E 011°58'611.5
2018-May-20 08:00N 54°27' E 012°08'5 9.8
2018-May-20 07:30N 54°31' E 012°13'610.0
2018-May-20 06:57N 54°36' E 012°16'4 8.4
2018-May-20 06:30N 54°38' E 012°21'1 2.6
2018-May-20 06:00N 54°37' E 012°20'2 3.5
2018-May-20 05:30N 54°36' E 012°18'2 3.5
2018-May-20 05:00N 54°34' E 012°17'2 3.4
2018-May-20 04:30N 54°33' E 012°15'0 1.0
2018-May-20 04:00N 54°33' E 012°14'2 3.7
2018-May-20 03:30N 54°35' E 012°15'3 6.9
2018-May-20 03:00N 54°37' E 012°19'510.0
2018-May-20 02:30N 54°40' E 012°27'4 7.6
2018-May-20 02:00N 54°42' E 012°32'510.4
2018-May-20 01:30N 54°45' E 012°39'510.4
2018-May-20 01:00N 54°48' E 012°48'611.1
2018-May-20 00:29N 54°50' E 012°57'511.2
2018-May-20 00:00N 54°52' E 013°06'611.4
2018-May-19 23:30N 54°54' E 013°15'511.3
2018-May-19 23:00N 54°56' E 013°24'611.2
2018-May-19 22:30N 54°58' E 013°33'611.1
2018-May-19 22:00N 54°60' E 013°42'611.2
2018-May-19 21:30N 55°02' E 013°51'611.2
2018-May-19 21:00N 55°04' E 014°01'510.8
2018-May-19 20:30N 55°07' E 014°08'510.6
2018-May-19 20:00N 55°11' E 014°13'3 5.4
2018-May-19 19:30N 55°13' E 014°17'2 3.7
2018-May-19 19:00N 55°15' E 014°19'1 2.3
2018-May-19 18:30N 55°16' E 014°20'2 4.0
2018-May-19 18:00N 55°17' E 014°22'1 2.9
2018-May-19 17:30N 55°18' E 014°23'2 3.1
2018-May-19 17:00N 55°20' E 014°25'1 2.8
2018-May-19 16:30N 55°21' E 014°27'2 3.8
2018-May-19 16:00N 55°22' E 014°29'2 3.3
2018-May-19 15:30N 55°23' E 014°31'3 6.1
2018-May-19 15:00N 55°26' E 014°34'5 9.7
2018-May-19 14:30N 55°29' E 014°41'3 6.9
2018-May-19 14:00N 55°30' E 014°46'510.7
2018-May-19 13:30N 55°33' E 014°55'611.5
2018-May-19 13:00N 55°36' E 015°04'611.4
2018-May-19 12:30N 55°37' E 015°13'611.3
2018-May-19 12:00N 55°39' E 015°23'611.2
2018-May-19 11:30N 55°40' E 015°33'  
Track history (hours):
 
Tides and Currents Weather Stations Pressure Air Temp Water Temp Dewpoint Dewpoint Depression Visibility Wind Speed Wind Dir Waves Ship Positions

Nba Van Gogh

Last reported at 2018-May-29 11:21 UTC. Time now 2018-Jun-20 19:01 UTC.
Position N 38°54' E 003°10'.
Warning: this ship's position is 22 days out of date.

Length 235 m; draft 13.7 m.

Type: Cargo ship. MMSI: 357110000.

Date/timePositionNaut miles runAvg speedWind from/ knotsBaromVisibWave heightAir tempDewpointWater temp
2018-May-29 11:21N 38°54' E 003°10'611.3
2018-May-29 10:46N 38°51' E 003°03'2011.5
2018-May-29 09:01N 38°40' E 002°41'011.6
2018-May-29 08:59N 38°40' E 002°40'3411.7
2018-May-29 06:04N 38°23' E 002°03'211.7
2018-May-29 05:52N 38°21' E 002°00'9611.6
2018-May-28 21:34N 37°32' E 000°16'311.9
2018-May-28 21:18N 37°31' E 000°12'412.0
2018-May-28 21:00N 37°29' E 000°08'612.1
2018-May-28 20:30N 37°26' E 000°02'712.2
2018-May-28 19:54N 37°22' W 000°06'612.1
2018-May-28 19:26N 37°19' W 000°12'512.0
2018-May-28 19:00N 37°16' W 000°18'612.0
2018-May-28 18:29N 37°13' W 000°24'1511.7
2018-May-28 17:12N 37°06' W 000°40'211.6
2018-May-28 17:00N 37°04' W 000°43'911.7
2018-May-28 16:13N 36°60' W 000°53'1513.7
2018-May-28 15:07N 36°52' W 001°09'514.3
2018-May-28 14:48N 36°50' W 001°14'19812.2
2018-May-27 22:39N 36°01' W 005°12'214.2
2018-May-27 22:30N 36°00' W 005°15'714.1
2018-May-27 22:00N 35°59' W 005°23'713.2
2018-May-27 21:30N 35°57' W 005°31'612.0
2018-May-27 20:59N 35°55' W 005°38'610.9
2018-May-27 20:29N 35°55' W 005°45'611.2
2018-May-27 19:58N 35°54' W 005°52'15512.0
2018-May-27 07:00N 36°30' W 008°59'9210.8
2018-May-26 22:28N 37°50' W 009°55'1511.3
2018-May-26 21:10N 38°05' W 009°60'411.2
2018-May-26 20:50N 38°08' W 010°01'411.3
2018-May-26 20:30N 38°12' W 010°02'611.4
2018-May-26 19:59N 38°17' W 010°04'511.3
2018-May-26 19:30N 38°23' W 010°06'611.3
2018-May-26 19:00N 38°28' W 010°08'711.5
2018-May-26 18:22N 38°35' W 010°11'511.5
2018-May-26 17:58N 38°40' W 010°12'511.4
2018-May-26 17:30N 38°45' W 010°13'611.5
2018-May-26 17:00N 38°51' W 010°13'611.8
2018-May-26 16:30N 38°57' W 010°12'611.7
2018-May-26 16:00N 39°02' W 010°12'612.0
2018-May-26 15:30N 39°08' W 010°12'713.2
2018-May-26 15:00N 39°15' W 010°12'  
2018-May-24 08:54N 48°56' W 005°43'2611.6
2018-May-24 06:42N 49°09' W 005°10'212.0
2018-May-24 06:30N 49°10' W 005°06'7411.7
2018-May-24 00:10N 49°47' W 003°28'211.4
2018-May-24 00:00N 49°48' W 003°25'611.6
2018-May-23 23:30N 49°51' W 003°18'611.9
2018-May-23 23:00N 49°54' W 003°10'612.3
2018-May-23 22:30N 49°57' W 003°01'612.7
2018-May-23 22:01N 49°59' W 002°52'713.3
2018-May-23 21:30N 50°01' W 002°42'1013.7
2018-May-23 20:49N 50°04' W 002°28'1314.0
2018-May-23 19:55N 50°07' W 002°09'613.7
2018-May-23 19:30N 50°09' W 002°01'713.2
2018-May-23 19:00N 50°11' W 001°51'612.6
2018-May-23 18:30N 50°12' W 001°41'611.9
2018-May-23 18:00N 50°14' W 001°32'611.3
2018-May-23 17:30N 50°15' W 001°24'510.7
2018-May-23 17:00N 50°17' W 001°16'11 9.9
2018-May-23 15:55N 50°20' W 000°60'5 9.5
2018-May-23 15:23N 50°21' W 000°52'4 9.7
2018-May-23 15:00N 50°22' W 000°46'5 9.8
2018-May-23 14:30N 50°23' W 000°39'510.0
2018-May-23 14:00N 50°25' W 000°31'510.5
2018-May-23 13:30N 50°26' W 000°24'611.1
2018-May-23 13:00N 50°28' W 000°15'611.7
2018-May-23 12:30N 50°29' W 000°06'612.1
2018-May-23 12:00N 50°31' E 000°03'612.6
2018-May-23 11:30N 50°32' E 000°13'612.9
2018-May-23 11:00N 50°34' E 000°22'1112.9
2018-May-23 10:11N 50°39' E 000°37'3311.9
2018-May-23 07:25N 50°59' E 001°18'410.1
2018-May-23 07:00N 51°02' E 001°23'510.1
2018-May-23 06:30N 51°05' E 001°29'510.0
2018-May-23 06:00N 51°08' E 001°35'510.1
2018-May-23 05:30N 51°11' E 001°42'510.6
2018-May-23 05:00N 51°15' E 001°47'611.3
2018-May-23 04:30N 51°20' E 001°52'611.7
2018-May-23 04:00N 51°25' E 001°57'612.5
2018-May-23 03:30N 51°30' E 002°03'612.9
2018-May-23 03:00N 51°35' E 002°10'713.1
2018-May-23 02:30N 51°40' E 002°17'713.2
2018-May-23 02:00N 51°45' E 002°23'713.1
2018-May-23 01:30N 51°50' E 002°30'612.8
2018-May-23 01:00N 51°55' E 002°36'612.4
2018-May-23 00:30N 52°01' E 002°41'611.9
2018-May-23 00:00N 52°07' E 002°42'611.4
2018-May-22 23:28N 52°13' E 002°45'511.0
2018-May-22 23:00N 52°18' E 002°47'510.8
2018-May-22 22:30N 52°22' E 002°51'510.5
2018-May-22 22:00N 52°27' E 002°55'510.4
2018-May-22 21:30N 52°32' E 002°58'510.3
2018-May-22 21:00N 52°37' E 003°02'510.2
2018-May-22 20:30N 52°41' E 003°05'510.3
2018-May-22 20:00N 52°46' E 003°09'510.5
2018-May-22 19:30N 52°51' E 003°12'510.8
2018-May-22 19:00N 52°56' E 003°15'611.2
2018-May-22 18:30N 53°01' E 003°18'611.6
2018-May-22 18:00N 53°07' E 003°21'611.9
2018-May-22 17:30N 53°12' E 003°24'612.1
2018-May-22 17:00N 53°18' E 003°26'612.1
2018-May-22 16:30N 53°24' E 003°29'612.2
2018-May-22 16:00N 53°30' E 003°33'612.2
2018-May-22 15:30N 53°36' E 003°36'612.0
2018-May-22 15:00N 53°41' E 003°39'1811.3
2018-May-22 13:24N 53°53' E 004°02'1211.1
2018-May-22 12:22N 54°00' E 004°18'1411.1
2018-May-22 11:05N 54°12' E 004°32'111.2
2018-May-22 11:00N 54°13' E 004°33'611.4
2018-May-22 10:29N 54°18' E 004°38'611.4
2018-May-22 10:00N 54°22' E 004°43'611.6
2018-May-22 09:30N 54°27' E 004°48'611.8
2018-May-22 09:00N 54°32' E 004°53'612.0
2018-May-22 08:30N 54°38' E 004°58'17011.7
2018-May-21 18:01N 57°03' E 007°33'2911.5
2018-May-21 15:31N 57°22' E 008°14'010.5
2018-May-21 15:28N 57°22' E 008°14'712.2
2018-May-21 14:53N 57°27' E 008°25'812.3
2018-May-21 14:14N 57°31' E 008°37'611.6
2018-May-21 13:43N 57°35' E 008°46'311.7
2018-May-21 13:29N 57°37' E 008°50'611.7
2018-May-21 12:59N 57°40' E 008°58'611.6
2018-May-21 12:30N 57°43' E 009°07'611.5
2018-May-21 12:00N 57°46' E 009°16'611.4
2018-May-21 11:30N 57°49' E 009°25'611.1
2018-May-21 11:00N 57°50' E 009°36'611.6
2018-May-21 10:30N 57°50' E 009°46'611.9
2018-May-21 10:00N 57°50' E 009°58'611.9
2018-May-21 09:30N 57°50' E 010°09'611.8
2018-May-21 09:00N 57°50' E 010°20'611.9
2018-May-21 08:30N 57°50' E 010°31'611.4
2018-May-21 08:00N 57°50' E 010°42'5 9.8
2018-May-21 07:30N 57°47' E 010°50'4 8.8
2018-May-21 07:00N 57°43' E 010°54'611.4
2018-May-21 06:30N 57°40' E 011°02'611.3
2018-May-21 06:00N 57°36' E 011°10'611.4
2018-May-21 05:30N 57°32' E 011°18'611.7
2018-May-21 05:00N 57°28' E 011°26'612.1
2018-May-21 04:30N 57°22' E 011°29'611.7
2018-May-21 04:00N 57°17' E 011°33'611.6
2018-May-21 03:30N 57°11' E 011°37'611.4
2018-May-21 03:00N 57°06' E 011°41'611.4
2018-May-21 02:30N 57°00' E 011°44'611.5
2018-May-21 02:00N 56°55' E 011°48'611.4
2018-May-21 01:30N 56°50' E 011°51'610.5
2018-May-21 00:58N 56°44' E 011°53'510.8
2018-May-21 00:30N 56°40' E 011°48'610.9
2018-May-20 23:59N 56°35' E 011°43'511.0
2018-May-20 23:30N 56°31' E 011°38'611.1
2018-May-20 23:00N 56°26' E 011°33'511.1
2018-May-20 22:30N 56°21' E 011°28'611.1
2018-May-20 22:00N 56°16' E 011°23'611.4
2018-May-20 21:30N 56°11' E 011°17'47 9.9
2018-May-20 16:44N 55°25' E 010°59'310.8
2018-May-20 16:29N 55°23' E 011°02'510.7
2018-May-20 16:00N 55°18' E 011°03'510.6
2018-May-20 15:30N 55°13' E 011°06'510.4
2018-May-20 15:00N 55°09' E 010°60'611.0
2018-May-20 14:30N 55°04' E 010°60'510.8
2018-May-20 14:00N 54°58' E 010°58'611.2
2018-May-20 13:30N 54°54' E 010°51'510.5
2018-May-20 13:00N 54°49' E 010°50'611.9
2018-May-20 12:30N 54°43' E 010°47'611.0
2018-May-20 12:00N 54°39' E 010°53'611.4
2018-May-20 11:30N 54°36' E 011°02'611.7
2018-May-20 11:00N 54°36' E 011°12'611.1
2018-May-20 10:30N 54°33' E 011°20'611.7
2018-May-20 10:00N 54°30' E 011°29'611.6
2018-May-20 09:30N 54°28' E 011°39'611.6
2018-May-20 09:00N 54°27' E 011°48'611.8
2018-May-20 08:30N 54°27' E 011°58'611.5
2018-May-20 08:00N 54°27' E 012°08'5 9.8
2018-May-20 07:30N 54°31' E 012°13'610.0
2018-May-20 06:57N 54°36' E 012°16'4 8.4
2018-May-20 06:30N 54°38' E 012°21'1 2.6
2018-May-20 06:00N 54°37' E 012°20'2 3.5
2018-May-20 05:30N 54°36' E 012°18'2 3.5
2018-May-20 05:00N 54°34' E 012°17'2 3.4
2018-May-20 04:30N 54°33' E 012°15'0 1.0
2018-May-20 04:00N 54°33' E 012°14'2 3.7
2018-May-20 03:30N 54°35' E 012°15'3 6.9
2018-May-20 03:00N 54°37' E 012°19'510.0
2018-May-20 02:30N 54°40' E 012°27'4 7.6
2018-May-20 02:00N 54°42' E 012°32'510.4
2018-May-20 01:30N 54°45' E 012°39'510.4
2018-May-20 01:00N 54°48' E 012°48'611.1
2018-May-20 00:29N 54°50' E 012°57'511.2
2018-May-20 00:00N 54°52' E 013°06'611.4
2018-May-19 23:30N 54°54' E 013°15'511.3
2018-May-19 23:00N 54°56' E 013°24'611.2
2018-May-19 22:30N 54°58' E 013°33'611.1
2018-May-19 22:00N 54°60' E 013°42'611.2
2018-May-19 21:30N 55°02' E 013°51'611.2
2018-May-19 21:00N 55°04' E 014°01'510.8
2018-May-19 20:30N 55°07' E 014°08'510.6
2018-May-19 20:00N 55°11' E 014°13'3 5.4
2018-May-19 19:30N 55°13' E 014°17'2 3.7
2018-May-19 19:00N 55°15' E 014°19'1 2.3
2018-May-19 18:30N 55°16' E 014°20'2 4.0
2018-May-19 18:00N 55°17' E 014°22'1 2.9
2018-May-19 17:30N 55°18' E 014°23'2 3.1
2018-May-19 17:00N 55°20' E 014°25'1 2.8
2018-May-19 16:30N 55°21' E 014°27'2 3.8
2018-May-19 16:00N 55°22' E 014°29'2 3.3
2018-May-19 15:30N 55°23' E 014°31'3 6.1
2018-May-19 15:00N 55°26' E 014°34'5 9.7
2018-May-19 14:30N 55°29' E 014°41'3 6.9
2018-May-19 14:00N 55°30' E 014°46'510.7
2018-May-19 13:30N 55°33' E 014°55'611.5
2018-May-19 13:00N 55°36' E 015°04'611.4
2018-May-19 12:30N 55°37' E 015°13'611.3
2018-May-19 12:00N 55°39' E 015°23'611.2
2018-May-19 11:30N 55°40' E 015°33'  

Dump ship's entire track history